Main page
METAR-TAF:

METAR-TAF

Airports :

Jasper County Airport (Bell Field)

Jasper, Texas, United States

latitude: 30-53-08N, longitude: 094-02-05W, elevation: 213 ft

Current weather observation

The report was made 10 minutes ago, at 13:35 UTC
Wind 5 mph from the Southeast
Temperature 72°F
Humidity 94%
Pressure 29.97 in. Hg
Visibility: 7 miles
Overcast at a height of 600 ft

METAR: KJAS 201335Z AUTO 14004KT 7SM OVC006 22/21 A2997 RMK AO2 T02180213

Time: 08:45 (13:45 UTC)


TAF: missing

Weather observations and forecasts of more than 4000 airports (METAR and TAF reports).

The available stations are represented by yellow and red dots on the map.

Hover mouse over dot to see the name of the station.

Then click to see weather observations and forecasts.

To change the map : click on the green buttons with a black cross to zoom in, on the green button with a dash to zoom out, or on the green arrows for adjacent maps.


METAR-TAF: